Time;durP1;ratioP1;P1;durP2;ratioP2;P2;SDS_P1;SDS_P2;PMS_P1;PMS_P2;Temp;Humidity;BMP_temperature;BMP_pressure;BME280_temperature;BME280_humidity;BME280_pressure;Samples;Min_cycle;Max_cycle;Signal;HPM_P1;HPM_P2
2021/12/29 00:01:55;;;;;;;10.95;1.58;;;8.40;99.90;;;;;;4972772;28;20043;-69
2021/12/29 00:04:21;;;;;;;3.97;1.10;;;8.40;99.90;;;;;;4971953;28;20460;-72
2021/12/29 00:06:48;;;;;;;6.90;1.25;;;8.30;99.90;;;;;;4972899;28;20448;-73
2021/12/29 00:09:14;;;;;;;8.00;1.10;;;8.30;99.90;;;;;;4972285;28;20034;-76
2021/12/29 00:11:41;;;;;;;5.15;1.20;;;8.30;99.90;;;;;;4955478;28;20035;-70
2021/12/29 00:14:08;;;;;;;9.95;1.20;;;8.30;99.90;;;;;;4972757;28;20063;-74
2021/12/29 00:16:35;;;;;;;5.93;1.00;;;8.30;99.90;;;;;;4972078;28;20035;-73
2021/12/29 00:19:05;;;;;;;4.40;0.95;;;8.40;99.90;;;;;;4972912;28;20050;-74
2021/12/29 00:21:35;;;;;;;4.78;0.90;;;8.40;99.90;;;;;;4971335;28;20146;-75
2021/12/29 00:24:02;;;;;;;7.70;0.70;;;8.50;99.90;;;;;;4972692;28;20035;-75
2021/12/29 00:26:29;;;;;;;6.25;1.02;;;8.50;99.90;;;;;;4971779;28;20023;-74
2021/12/29 00:28:58;;;;;;;4.78;0.93;;;8.50;99.90;;;;;;4972730;28;20460;-74
2021/12/29 00:31:28;;;;;;;4.68;0.65;;;8.50;99.90;;;;;;4971967;28;20093;-75
2021/12/29 00:33:54;;;;;;;4.25;0.63;;;8.60;99.90;;;;;;4976324;28;20027;-73
2021/12/29 00:36:20;;;;;;;6.60;0.88;;;8.60;99.90;;;;;;4957963;28;20078;-73
2021/12/29 00:38:46;;;;;;;7.38;1.10;;;8.60;99.90;;;;;;4976474;28;20034;-77
2021/12/29 00:41:12;;;;;;;7.82;0.80;;;8.60;99.90;;;;;;4975363;28;20117;-73
2021/12/29 00:43:38;;;;;;;2.08;0.50;;;8.60;99.90;;;;;;4976246;28;20026;-75
2021/12/29 00:46:07;;;;;;;2.88;0.68;;;8.60;99.90;;;;;;4975901;28;20037;-75
2021/12/29 00:48:39;;;;;;;5.57;0.75;;;8.50;99.90;;;;;;4957952;28;20065;-76
2021/12/29 00:51:06;;;;;;;7.03;0.90;;;8.60;99.90;;;;;;4976238;28;20481;-74
2021/12/29 00:53:32;;;;;;;3.00;0.52;;;8.50;99.90;;;;;;4975449;28;20472;-77
2021/12/29 00:55:59;;;;;;;4.68;0.63;;;8.50;99.90;;;;;;4975941;28;20039;-72
2021/12/29 00:58:24;;;;;;;5.68;1.17;;;8.50;99.90;;;;;;4975281;28;20034;-73
2021/12/29 01:00:50;;;;;;;5.28;0.63;;;8.50;99.90;;;;;;4976296;28;20023;-73
2021/12/29 01:03:16;;;;;;;5.95;1.33;;;8.40;99.90;;;;;;4975138;28;20133;-76
2021/12/29 01:05:42;;;;;;;4.00;0.60;;;8.30;99.90;;;;;;4974009;28;20027;-78
2021/12/29 01:08:07;;;;;;;3.90;0.65;;;8.20;99.90;;;;;;4975182;28;20027;-77
2021/12/29 01:10:35;;;;;;;4.00;0.55;;;8.10;99.90;;;;;;4974124;28;20026;-79
2021/12/29 01:13:02;;;;;;;2.38;0.52;;;8.10;99.90;;;;;;4973207;28;20074;-77
2021/12/29 01:15:36;;;;;;;3.20;0.52;;;8.10;99.90;;;;;;4974336;28;20097;-76
2021/12/29 01:18:05;;;;;;;2.30;0.70;;;8.10;99.90;;;;;;4974935;28;20134;-76
2021/12/29 01:20:32;;;;;;;2.00;0.50;;;8.20;99.90;;;;;;4971659;28;20019;-76
2021/12/29 01:22:59;;;;;;;4.85;0.73;;;8.20;99.90;;;;;;4974606;28;20403;-76
2021/12/29 01:25:25;;;;;;;2.20;0.45;;;8.20;99.90;;;;;;4974065;28;20103;-75
2021/12/29 01:27:51;;;;;;;3.85;0.60;;;8.20;99.90;;;;;;4974954;28;20037;-80
2021/12/29 01:30:17;;;;;;;3.60;0.57;;;8.20;99.90;;;;;;4974009;28;20022;-76
2021/12/29 01:32:43;;;;;;;3.65;0.80;;;8.20;99.90;;;;;;4975052;28;20026;-78
2021/12/29 01:35:11;;;;;;;2.70;0.52;;;8.20;99.90;;;;;;4972408;28;20065;-79
2021/12/29 01:37:37;;;;;;;2.33;0.40;;;8.30;99.90;;;;;;4975166;28;20055;-77
2021/12/29 01:40:10;;;;;;;4.35;0.85;;;8.30;99.90;;;;;;4974951;28;20031;-77
2021/12/29 01:42:36;;;;;;;3.10;0.68;;;8.30;99.90;;;;;;4973966;28;20046;-79
2021/12/29 01:45:03;;;;;;;2.00;0.43;;;8.30;99.90;;;;;;4975087;28;20388;-78
2021/12/29 01:47:31;;;;;;;4.10;0.60;;;8.30;99.90;;;;;;4974233;28;20082;-79
2021/12/29 01:50:00;;;;;;;1.75;0.40;;;8.30;99.90;;;;;;4974783;28;20109;-79
2021/12/29 01:52:30;;;;;;;4.18;0.73;;;8.30;99.90;;;;;;4974105;28;20058;-80
2021/12/29 01:54:56;;;;;;;2.67;0.50;;;8.30;99.90;;;;;;4975176;28;20023;-80
2021/12/29 01:57:22;;;;;;;2.15;0.30;;;8.30;99.90;;;;;;4974052;28;20027;-80
2021/12/29 01:59:48;;;;;;;2.28;0.55;;;8.30;99.90;;;;;;4975002;28;20043;-73
2021/12/29 02:02:15;;;;;;;1.63;0.52;;;8.30;99.90;;;;;;4964746;28;20101;-73
2021/12/29 02:04:45;;;;;;;2.50;0.43;;;8.30;99.90;;;;;;4972965;28;20034;-72
2021/12/29 02:07:12;;;;;;;1.92;0.38;;;8.40;99.90;;;;;;4972110;28;20050;-73
2021/12/29 02:09:38;;;;;;;2.65;0.40;;;8.30;99.90;;;;;;4984056;28;20113;-73
2021/12/29 02:12:05;;;;;;;3.17;0.32;;;8.30;99.90;;;;;;4988510;28;20368;-73
2021/12/29 02:14:32;;;;;;;3.90;0.60;;;8.30;99.90;;;;;;4972960;28;20162;-73
2021/12/29 02:16:59;;;;;;;3.20;0.40;;;8.30;99.90;;;;;;4973539;28;20046;-73
2021/12/29 02:19:25;;;;;;;1.35;0.20;;;8.30;99.90;;;;;;4971286;28;20023;-73
2021/12/29 02:22:03;;;;;;;2.20;0.30;;;8.30;99.90;;;;;;4974129;28;20027;-73
2021/12/29 02:24:41;;;;;;;1.10;0.22;;;8.20;99.90;;;;;;4973135;28;20031;-73
2021/12/29 02:27:10;;;;;;;1.77;0.20;;;8.20;99.90;;;;;;4978696;28;20023;-73
2021/12/29 02:29:37;;;;;;;1.58;0.30;;;8.30;99.90;;;;;;4979620;28;20387;-73
2021/12/29 02:32:03;;;;;;;2.35;0.30;;;8.30;99.90;;;;;;4972196;28;20034;-73
2021/12/29 02:34:29;;;;;;;2.33;0.32;;;8.40;99.90;;;;;;4972759;28;20031;-73
2021/12/29 02:36:57;;;;;;;2.42;0.30;;;8.40;99.90;;;;;;4973736;28;20444;-73
2021/12/29 02:39:24;;;;;;;1.92;0.30;;;8.40;99.90;;;;;;4973226;28;20110;-73
2021/12/29 02:41:53;;;;;;;0.65;0.22;;;8.30;99.90;;;;;;4973851;28;20134;-73
2021/12/29 02:44:25;;;;;;;1.05;0.30;;;8.50;99.90;;;;;;4972788;28;20027;-73
2021/12/29 02:46:51;;;;;;;0.50;0.30;;;8.50;99.90;;;;;;4973910;28;20031;-73
2021/12/29 02:49:17;;;;;;;1.30;0.20;;;8.60;99.90;;;;;;4972506;28;20030;-72
2021/12/29 02:51:43;;;;;;;0.90;0.28;;;8.70;99.90;;;;;;4975733;28;20035;-73
2021/12/29 02:54:09;;;;;;;1.58;0.30;;;8.70;99.90;;;;;;4973458;28;20023;-73
2021/12/29 02:56:35;;;;;;;1.75;0.25;;;8.60;99.90;;;;;;4972798;28;20030;-75
2021/12/29 02:59:01;;;;;;;1.42;0.17;;;8.60;99.90;;;;;;4956238;28;20121;-73
2021/12/29 03:01:27;;;;;;;2.53;0.20;;;8.60;99.90;;;;;;4969444;28;20384;-72
2021/12/29 03:03:55;;;;;;;0.85;0.20;;;8.70;99.90;;;;;;4973526;28;20027;-73
2021/12/29 03:06:21;;;;;;;2.38;0.40;;;8.70;99.90;;;;;;4972628;28;20031;-73
2021/12/29 03:08:47;;;;;;;1.55;0.47;;;8.60;99.90;;;;;;4973467;28;20375;-73
2021/12/29 03:11:12;;;;;;;0.47;0.20;;;8.60;99.90;;;;;;4973199;28;20432;-73
2021/12/29 03:13:39;;;;;;;0.75;0.22;;;8.60;99.90;;;;;;4972275;28;20043;-73
2021/12/29 03:16:06;;;;;;;2.03;0.25;;;8.60;99.90;;;;;;4973353;28;20041;-73
2021/12/29 03:18:32;;;;;;;0.38;0.10;;;8.70;99.90;;;;;;4972307;28;20789;-73
2021/12/29 03:20:58;;;;;;;0.95;0.20;;;8.80;99.90;;;;;;4973168;28;20109;-73
2021/12/29 03:23:24;;;;;;;2.00;0.30;;;8.80;99.90;;;;;;4972510;28;20085;-73
2021/12/29 03:25:51;;;;;;;0.68;0.30;;;8.90;99.90;;;;;;4973152;28;20035;-73
2021/12/29 03:28:19;;;;;;;0.22;0.10;;;8.90;99.90;;;;;;4972422;28;20038;-72
2021/12/29 03:30:48;;;;;;;2.47;0.30;;;8.80;99.90;;;;;;4972812;28;20042;-73
2021/12/29 03:33:15;;;;;;;1.45;0.17;;;8.80;99.90;;;;;;4972686;28;20038;-73
2021/12/29 03:35:43;;;;;;;1.55;0.20;;;8.90;99.90;;;;;;4972885;28;20033;-73
2021/12/29 03:38:13;;;;;;;0.43;0.13;;;8.90;99.90;;;;;;4973206;28;20496;-74
2021/12/29 03:40:38;;;;;;;;;;;8.90;99.90;;;;;;4973552;28;20022;-74
2021/12/29 03:43:06;;;;;;;0.43;0.10;;;8.90;99.90;;;;;;4972900;28;19921;-73
2021/12/29 03:45:32;;;;;;;0.77;0.10;;;9.10;99.90;;;;;;4972192;28;20039;-73
2021/12/29 03:47:58;;;;;;;2.88;0.20;;;9.00;99.90;;;;;;4973023;28;20031;-73
2021/12/29 03:50:23;;;;;;;2.05;0.15;;;9.10;99.90;;;;;;4972498;28;20081;-72
2021/12/29 03:52:49;;;;;;;0.20;0.10;;;9.10;99.90;;;;;;4972377;28;20035;-73
2021/12/29 03:55:15;;;;;;;0.40;0.10;;;9.00;99.90;;;;;;4972335;28;20031;-72
2021/12/29 03:57:42;;;;;;;0.93;0.20;;;9.00;99.90;;;;;;4972528;28;20026;-73
2021/12/29 04:00:14;;;;;;;1.05;0.10;;;9.00;99.90;;;;;;4972882;28;20390;-73
2021/12/29 04:02:41;;;;;;;3.20;0.30;;;8.90;99.90;;;;;;4972189;28;20041;-73
2021/12/29 04:05:10;;;;;;;1.85;0.20;;;8.90;99.90;;;;;;4971796;28;20026;-73
2021/12/29 04:07:36;;;;;;;0.10;0.00;;;8.90;99.90;;;;;;4975453;28;20026;-73
2021/12/29 04:10:03;;;;;;;0.52;0.10;;;8.90;99.90;;;;;;4976408;28;20023;-73
2021/12/29 04:12:28;;;;;;;0.22;0.10;;;8.80;99.90;;;;;;4974953;28;20119;-73
2021/12/29 04:14:54;;;;;;;0.30;0.10;;;8.70;99.90;;;;;;4976097;28;20055;-73
2021/12/29 04:17:25;;;;;;;0.35;0.15;;;8.60;99.90;;;;;;4975867;28;20066;-72
2021/12/29 04:22:35;;;;;;;1.50;0.20;;;8.40;99.90;;;;;;4975385;28;20065;-73
2021/12/29 04:25:01;;;;;;;0.22;0.20;;;8.30;99.90;;;;;;4958498;28;20388;-74
2021/12/29 04:27:26;;;;;;;1.92;0.38;;;8.10;99.90;;;;;;4975628;28;20048;-73
2021/12/29 04:29:52;;;;;;;1.52;0.50;;;8.00;99.90;;;;;;4976449;28;20489;-74
2021/12/29 04:32:19;;;;;;;0.68;0.32;;;7.90;99.90;;;;;;4974973;28;20041;-73
2021/12/29 04:34:45;;;;;;;1.27;0.50;;;7.80;99.90;;;;;;4974997;28;20472;-74
2021/12/29 04:37:11;;;;;;;2.92;0.60;;;7.70;99.90;;;;;;4976012;28;20030;-74
2021/12/29 04:39:36;;;;;;;1.25;0.50;;;7.60;99.90;;;;;;4974589;28;20026;-74
2021/12/29 04:42:02;;;;;;;1.75;0.40;;;7.60;99.90;;;;;;4974778;28;20030;-74
2021/12/29 04:44:28;;;;;;;0.38;0.20;;;7.50;99.90;;;;;;4961901;28;20030;-74
2021/12/29 04:46:55;;;;;;;2.17;0.75;;;7.50;99.90;;;;;;4969525;28;20119;-74
2021/12/29 04:49:26;;;;;;;2.85;0.70;;;7.50;99.90;;;;;;4953718;29;20019;-74
2021/12/29 04:52:02;;;;;;;3.00;0.95;;;7.40;99.90;;;;;;4963023;28;20059;-74
2021/12/29 04:54:29;;;;;;;2.97;0.70;;;7.40;99.90;;;;;;4969785;28;20038;-75
2021/12/29 04:56:55;;;;;;;0.85;0.50;;;7.30;99.90;;;;;;4967490;28;20027;-75
2021/12/29 04:59:22;;;;;;;1.15;0.40;;;7.30;99.90;;;;;;4969890;28;20103;-74
2021/12/29 05:01:48;;;;;;;3.58;0.80;;;7.30;99.90;;;;;;4967845;28;20686;-74
2021/12/29 05:04:28;;;;;;;1.33;0.60;;;7.20;99.90;;;;;;4969534;28;20050;-74
2021/12/29 05:09:38;;;;;;;1.58;0.20;;;7.20;99.90;;;;;;4968780;28;20029;-74
2021/12/29 05:12:05;;;;;;;1.35;0.30;;;7.20;99.90;;;;;;4968754;28;20023;-74
2021/12/29 05:14:30;;;;;;;1.40;0.50;;;7.20;99.90;;;;;;4971986;28;20047;-74
2021/12/29 05:16:56;;;;;;;2.03;0.40;;;7.20;99.90;;;;;;4974271;28;20031;-74
2021/12/29 05:19:22;;;;;;;1.15;0.30;;;7.10;99.90;;;;;;4973969;28;20029;-74
2021/12/29 05:21:48;;;;;;;2.47;0.30;;;7.20;99.90;;;;;;4973921;28;20697;-75
2021/12/29 05:24:14;;;;;;;2.50;0.32;;;7.10;99.90;;;;;;4974000;28;20019;-74
2021/12/29 05:26:40;;;;;;;1.30;0.50;;;7.20;99.90;;;;;;4972829;28;20031;-74
2021/12/29 05:29:05;;;;;;;1.40;0.50;;;7.10;99.90;;;;;;4974195;28;20485;-74
2021/12/29 05:31:31;;;;;;;3.22;0.40;;;7.10;99.90;;;;;;4974437;28;20038;-74
2021/12/29 05:33:57;;;;;;;3.40;0.88;;;7.10;99.90;;;;;;4974034;28;20414;-74
2021/12/29 05:36:23;;;;;;;1.98;0.63;;;7.10;99.90;;;;;;4974416;28;20027;-74
2021/12/29 05:38:49;;;;;;;2.47;0.65;;;7.10;99.90;;;;;;4975010;28;20031;-74
2021/12/29 05:41:15;;;;;;;4.05;1.00;;;7.10;99.90;;;;;;4975043;28;20046;-74
2021/12/29 05:43:40;;;;;;;5.70;1.10;;;7.10;99.90;;;;;;4974018;28;20369;-74
2021/12/29 05:46:06;;;;;;;9.65;1.75;;;7.10;99.90;;;;;;4974956;28;20038;-74
2021/12/29 05:48:33;;;;;;;5.07;1.27;;;7.10;99.90;;;;;;4974470;28;20114;-74
2021/12/29 05:50:59;;;;;;;3.65;1.10;;;7.10;99.90;;;;;;4974689;28;20023;-74
2021/12/29 05:53:25;;;;;;;7.28;2.03;;;7.10;99.90;;;;;;4974494;28;20575;-74
2021/12/29 05:55:51;;;;;;;2.97;1.08;;;7.10;99.90;;;;;;4974389;28;20030;-74
2021/12/29 05:58:16;;;;;;;4.78;0.90;;;7.10;99.90;;;;;;4974583;28;20031;-74
2021/12/29 06:00:43;;;;;;;5.15;1.20;;;7.10;99.90;;;;;;4974165;28;20113;-74
2021/12/29 06:03:10;;;;;;;2.90;1.00;;;7.00;99.90;;;;;;4974730;28;20039;-74
2021/12/29 06:05:36;;;;;;;3.00;0.77;;;7.00;99.90;;;;;;4973864;28;20103;-73
2021/12/29 06:08:02;;;;;;;2.88;1.20;;;7.00;99.90;;;;;;4974683;28;20456;-74
2021/12/29 06:10:28;;;;;;;4.03;0.80;;;7.00;99.90;;;;;;4973375;28;20045;-74
2021/12/29 06:12:54;;;;;;;7.25;0.93;;;7.00;99.90;;;;;;4974480;28;20476;-74
2021/12/29 06:15:20;;;;;;;3.45;1.10;;;7.00;99.90;;;;;;4973686;28;20041;-73
2021/12/29 06:17:45;;;;;;;3.35;0.80;;;7.00;99.90;;;;;;4974455;28;20027;-74
2021/12/29 06:20:12;;;;;;;4.28;1.10;;;7.00;99.90;;;;;;4974143;28;20533;-74
2021/12/29 06:22:38;;;;;;;1.52;0.60;;;7.00;99.90;;;;;;4973071;28;20042;-74
2021/12/29 06:25:05;;;;;;;5.60;1.00;;;7.00;99.90;;;;;;4973741;28;20019;-74
2021/12/29 06:27:32;;;;;;;5.22;0.70;;;7.00;99.90;;;;;;4973314;28;20384;-74
2021/12/29 06:29:58;;;;;;;3.05;0.55;;;7.00;99.90;;;;;;4973402;28;20530;-74
2021/12/29 06:32:25;;;;;;;3.20;1.42;;;7.00;99.90;;;;;;4973581;28;20468;-73
2021/12/29 06:34:51;;;;;;;3.25;0.60;;;7.00;99.90;;;;;;4957326;28;20427;-74
2021/12/29 06:37:17;;;;;;;5.25;0.60;;;7.00;99.90;;;;;;4968378;28;20085;-75
2021/12/29 06:39:45;;;;;;;3.40;0.60;;;7.00;99.90;;;;;;4972687;28;20041;-74
2021/12/29 06:42:12;;;;;;;3.45;0.60;;;7.00;99.90;;;;;;4974934;28;20062;-74
2021/12/29 06:44:38;;;;;;;2.67;0.63;;;7.00;99.90;;;;;;4974040;28;20507;-74
2021/12/29 06:47:05;;;;;;;2.50;0.50;;;7.00;99.90;;;;;;4973780;28;20178;-75
2021/12/29 06:49:31;;;;;;;2.47;0.63;;;7.00;99.90;;;;;;4972095;28;20027;-74
2021/12/29 06:51:56;;;;;;;3.50;0.60;;;7.00;99.90;;;;;;4973278;28;20031;-74
2021/12/29 06:54:22;;;;;;;3.97;0.43;;;7.00;99.90;;;;;;4971869;28;20388;-74
2021/12/29 06:56:48;;;;;;;3.03;0.77;;;7.00;99.90;;;;;;4973437;28;20049;-72
2021/12/29 06:59:13;;;;;;;2.50;0.50;;;7.00;99.90;;;;;;4973519;28;20041;-79
2021/12/29 07:01:39;;;;;;;3.30;0.60;;;7.00;99.90;;;;;;4972054;28;20062;-73
2021/12/29 07:04:05;;;;;;;2.35;0.52;;;7.00;99.90;;;;;;4973479;28;20031;-73
2021/12/29 07:06:30;;;;;;;4.20;0.70;;;7.00;99.90;;;;;;4955094;28;20034;-72
2021/12/29 07:08:56;;;;;;;3.30;0.63;;;7.00;99.90;;;;;;4973126;28;20034;-72
2021/12/29 07:11:22;;;;;;;2.58;0.75;;;7.00;99.90;;;;;;4972672;28;20118;-75
2021/12/29 07:13:49;;;;;;;5.40;0.60;;;7.00;99.90;;;;;;4973028;28;20057;-77
2021/12/29 07:16:14;;;;;;;5.65;0.70;;;7.10;99.90;;;;;;4973281;28;20031;-74
2021/12/29 07:18:40;;;;;;;1.73;0.52;;;7.10;99.90;;;;;;4972536;28;20671;-75
2021/12/29 07:21:06;;;;;;;2.53;0.80;;;7.10;99.90;;;;;;4972661;28;20058;-76
2021/12/29 07:23:31;;;;;;;3.35;0.75;;;7.10;99.90;;;;;;4972076;28;20084;-73
2021/12/29 07:25:57;;;;;;;3.53;0.60;;;7.10;99.90;;;;;;4975862;28;20054;-83
2021/12/29 07:28:22;;;;;;;2.58;0.47;;;7.10;99.90;;;;;;4954779;28;20031;-78
2021/12/29 07:30:48;;;;;;;2.00;0.90;;;7.10;99.90;;;;;;4973281;28;20023;-76
2021/12/29 07:33:14;;;;;;;4.28;1.00;;;7.10;99.90;;;;;;4973150;28;20086;-77
2021/12/29 07:35:39;;;;;;;3.67;0.95;;;7.10;99.90;;;;;;4971794;28;20166;-76
2021/12/29 07:38:05;;;;;;;3.08;1.02;;;7.10;99.90;;;;;;4959826;28;20031;-77
2021/12/29 07:40:31;;;;;;;4.53;0.98;;;7.10;99.90;;;;;;4972308;28;20034;-76
2021/12/29 07:42:57;;;;;;;3.50;1.38;;;7.10;99.90;;;;;;4972472;28;20049;-77
2021/12/29 07:45:25;;;;;;;3.38;1.02;;;7.20;99.90;;;;;;4972580;28;20031;-76
2021/12/29 07:47:51;;;;;;;2.88;1.20;;;7.10;99.90;;;;;;4973003;28;20041;-77
2021/12/29 07:50:18;;;;;;;4.70;1.42;;;7.20;99.90;;;;;;4972938;28;20027;-75
2021/12/29 07:52:47;;;;;;;4.03;1.00;;;7.20;99.90;;;;;;4972097;28;20054;-74
2021/12/29 07:55:18;;;;;;;5.38;1.05;;;7.20;99.90;;;;;;4973044;28;20078;-81
2021/12/29 07:57:45;;;;;;;3.28;1.13;;;7.20;99.90;;;;;;4970596;28;20023;-73
2021/12/29 08:00:12;;;;;;;2.60;1.15;;;7.20;99.90;;;;;;4973183;28;20078;-77
2021/12/29 08:02:37;;;;;;;3.75;0.90;;;7.20;99.90;;;;;;4971870;28;20480;-83
2021/12/29 08:05:07;;;;;;;2.80;1.17;;;7.20;99.90;;;;;;4972696;28;20106;-81
2021/12/29 08:07:34;;;;;;;7.82;2.72;;;7.20;99.90;;;;;;4971174;28;20030;-73
2021/12/29 08:10:00;;;;;;;4.18;1.50;;;7.20;99.90;;;;;;4972946;28;20086;-76
2021/12/29 08:12:26;;;;;;;6.93;1.35;;;7.30;99.90;;;;;;4971424;28;20033;-70
2021/12/29 08:14:52;;;;;;;3.05;1.13;;;7.30;99.90;;;;;;4972631;28;20114;-77
2021/12/29 08:17:18;;;;;;;4.88;1.40;;;7.30;99.90;;;;;;4972727;28;20039;-77
2021/12/29 08:19:44;;;;;;;5.00;1.45;;;7.30;99.90;;;;;;4971493;28;20035;-74
2021/12/29 08:22:10;;;;;;;4.03;1.98;;;7.30;99.90;;;;;;4971942;28;20035;-78
2021/12/29 08:24:36;;;;;;;5.82;1.60;;;7.30;99.90;;;;;;4971157;28;20460;-85
2021/12/29 08:27:03;;;;;;;7.65;1.60;;;7.30;99.90;;;;;;4971730;28;20054;-79
2021/12/29 08:29:28;;;;;;;3.08;1.40;;;7.30;99.90;;;;;;4971522;28;20050;-73
2021/12/29 08:31:56;;;;;;;3.70;1.13;;;7.40;99.90;;;;;;4972188;28;20019;-78
2021/12/29 08:34:22;;;;;;;3.28;1.17;;;7.50;99.90;;;;;;4971849;28;20451;-77
2021/12/29 08:36:49;;;;;;;2.53;1.20;;;7.50;99.90;;;;;;4971638;28;20092;-81
2021/12/29 08:39:15;;;;;;;4.43;1.60;;;7.50;99.90;;;;;;4970583;28;20027;-85
2021/12/29 08:41:41;;;;;;;5.13;1.73;;;7.60;99.90;;;;;;4971610;28;20035;-75
2021/12/29 08:44:06;;;;;;;5.10;1.30;;;7.60;99.90;;;;;;4972236;28;20065;-72
2021/12/29 08:46:32;;;;;;;2.75;1.48;;;7.60;99.90;;;;;;4971349;28;20058;-82
2021/12/29 08:48:58;;;;;;;2.97;1.02;;;7.70;99.90;;;;;;4971889;28;20031;-72
2021/12/29 08:51:24;;;;;;;2.58;1.17;;;7.70;99.90;;;;;;4971636;28;20027;-80
2021/12/29 08:53:50;;;;;;;6.72;1.20;;;7.70;99.90;;;;;;4975253;28;20034;-78
2021/12/29 08:56:16;;;;;;;2.78;1.00;;;7.80;99.90;;;;;;4975639;28;20085;-78
2021/12/29 08:58:43;;;;;;;1.50;0.73;;;7.80;99.90;;;;;;4974901;28;20026;-79
2021/12/29 09:01:09;;;;;;;3.80;0.90;;;7.80;99.90;;;;;;4975410;28;20106;-74
2021/12/29 09:03:35;;;;;;;3.22;0.90;;;7.90;99.90;;;;;;4974765;28;20162;-78
2021/12/29 09:06:02;;;;;;;1.88;0.52;;;7.90;99.90;;;;;;4975495;28;20037;-78
2021/12/29 09:08:28;;;;;;;3.03;0.70;;;7.90;99.90;;;;;;4974410;28;20531;-76
2021/12/29 09:10:54;;;;;;;2.58;0.68;;;7.90;99.90;;;;;;4975561;28;20155;-71
2021/12/29 09:13:20;;;;;;;4.40;0.90;;;8.00;99.90;;;;;;4975229;28;20398;-76
2021/12/29 09:15:46;;;;;;;4.55;0.80;;;8.00;99.90;;;;;;4974638;28;20019;-72
2021/12/29 09:18:12;;;;;;;2.95;1.13;;;8.10;99.90;;;;;;4975134;28;20042;-75
2021/12/29 09:20:44;;;;;;;4.45;0.80;;;8.10;99.90;;;;;;4974493;28;20026;-75
2021/12/29 09:23:11;;;;;;;2.78;1.02;;;8.20;99.90;;;;;;4975094;28;20447;-76
2021/12/29 09:25:40;;;;;;;4.40;0.90;;;8.20;99.90;;;;;;4974425;28;20061;-75
2021/12/29 09:28:07;;;;;;;2.93;0.70;;;8.20;99.90;;;;;;4974853;28;20479;-76
2021/12/29 09:30:35;;;;;;;2.88;0.88;;;8.30;99.90;;;;;;4973710;28;20031;-76
2021/12/29 09:33:00;;;;;;;2.42;0.68;;;8.30;99.90;;;;;;4975093;28;20061;-75
2021/12/29 09:35:28;;;;;;;2.22;1.15;;;8.30;99.90;;;;;;4974700;28;20066;-74
2021/12/29 09:37:54;;;;;;;2.72;0.82;;;8.40;99.90;;;;;;4974541;28;20029;-75
2021/12/29 09:40:22;;;;;;;5.97;1.35;;;8.40;99.90;;;;;;4975016;28;20086;-75
2021/12/29 09:42:50;;;;;;;2.05;0.80;;;8.50;99.90;;;;;;4973961;28;20049;-75
2021/12/29 09:45:16;;;;;;;5.22;0.77;;;8.50;99.90;;;;;;4974682;28;20085;-76
2021/12/29 09:47:42;;;;;;;3.38;0.70;;;8.50;99.90;;;;;;4974050;28;20030;-75
2021/12/29 09:50:10;;;;;;;2.50;0.95;;;8.50;99.90;;;;;;4957384;28;20383;-76
2021/12/29 09:52:37;;;;;;;2.72;1.10;;;8.50;99.90;;;;;;4973374;28;20079;-75
2021/12/29 09:55:09;;;;;;;2.35;0.98;;;8.60;99.90;;;;;;4974198;28;20031;-75
2021/12/29 09:57:39;;;;;;;2.08;0.75;;;8.60;99.90;;;;;;4964086;28;20026;-72
2021/12/29 10:00:19;;;;;;;2.55;0.85;;;8.70;99.90;;;;;;4973750;28;20025;-75
2021/12/29 10:02:45;;;;;;;1.85;0.82;;;8.70;99.90;;;;;;4973107;28;20125;-87
2021/12/29 10:05:11;;;;;;;4.03;0.95;;;8.80;99.90;;;;;;4973110;28;20106;-74
2021/12/29 10:07:36;;;;;;;1.38;0.73;;;8.90;99.90;;;;;;4972920;28;20109;-72
2021/12/29 10:10:15;;;;;;;2.75;0.95;;;9.00;99.90;;;;;;4974200;28;20361;-74
2021/12/29 10:12:42;;;;;;;3.63;0.98;;;9.10;99.90;;;;;;4973234;28;20031;-74
2021/12/29 10:15:08;;;;;;;4.15;1.20;;;9.10;99.90;;;;;;4974044;28;20042;-73
2021/12/29 10:17:34;;;;;;;3.40;0.90;;;9.10;99.90;;;;;;4973328;28;20031;-72
2021/12/29 10:20:08;;;;;;;4.40;1.20;;;9.20;99.90;;;;;;4974222;28;20495;-73
2021/12/29 10:22:34;;;;;;;5.40;1.42;;;9.20;99.90;;;;;;4973234;28;20046;-73
2021/12/29 10:25:12;;;;;;;3.42;1.08;;;9.20;99.90;;;;;;4973695;28;20023;-73
2021/12/29 10:27:38;;;;;;;5.30;1.10;;;9.20;99.90;;;;;;4973180;28;20043;-73
2021/12/29 10:30:17;;;;;;;6.50;1.00;;;9.20;99.90;;;;;;4956810;28;20341;-75
2021/12/29 10:32:42;;;;;;;4.55;0.95;;;9.20;99.90;;;;;;4973356;28;20493;-75
2021/12/29 10:35:08;;;;;;;2.90;1.10;;;9.20;99.90;;;;;;4956654;28;20066;-73
2021/12/29 10:37:34;;;;;;;5.15;1.30;;;9.20;99.90;;;;;;4972979;28;20465;-73
2021/12/29 10:39:59;;;;;;;4.72;1.20;;;9.20;99.90;;;;;;4972510;28;20483;-73
2021/12/29 10:42:26;;;;;;;3.97;1.15;;;9.20;99.90;;;;;;4973270;28;20035;-74
2021/12/29 10:44:59;;;;;;;5.47;1.27;;;9.20;99.90;;;;;;4972888;28;20039;-74
2021/12/29 10:47:31;;;;;;;4.57;0.93;;;9.30;99.90;;;;;;4973812;28;20033;-74
2021/12/29 10:50:27;;;;;;;4.32;1.10;;;9.30;99.90;;;;;;4973637;28;20113;-73
2021/12/29 10:52:54;;;;;;;4.03;0.93;;;9.30;99.90;;;;;;4970547;28;20408;-73
2021/12/29 10:55:34;;;;;;;4.43;1.15;;;9.30;99.90;;;;;;4972962;28;20027;-73
2021/12/29 10:58:13;;;;;;;2.63;0.93;;;9.40;99.90;;;;;;4973618;28;20026;-73
2021/12/29 11:00:46;;;;;;;6.05;1.13;;;9.50;99.90;;;;;;4972683;28;20086;-73
2021/12/29 11:03:21;;;;;;;7.05;1.02;;;9.50;99.90;;;;;;4973689;28;20468;-73
2021/12/29 11:05:50;;;;;;;3.38;0.88;;;9.60;99.90;;;;;;4972807;28;20042;-73
2021/12/29 11:08:17;;;;;;;7.75;1.05;;;9.60;99.90;;;;;;4973507;28;20030;-74
2021/12/29 11:10:44;;;;;;;2.63;1.02;;;9.60;99.90;;;;;;4972546;28;20034;-73
2021/12/29 11:13:12;;;;;;;5.57;1.40;;;9.60;99.90;;;;;;4973001;28;20506;-73
2021/12/29 11:15:41;;;;;;;2.88;1.10;;;9.60;99.90;;;;;;4971906;28;20603;-73
2021/12/29 11:18:11;;;;;;;6.00;1.65;;;9.60;99.90;;;;;;4973632;28;20034;-73
2021/12/29 11:20:39;;;;;;;3.83;1.00;;;9.60;99.90;;;;;;4972598;28;20034;-73
2021/12/29 11:23:16;;;;;;;4.93;1.35;;;9.60;99.90;;;;;;4973033;28;20036;-73
2021/12/29 11:25:43;;;;;;;6.90;1.35;;;9.60;99.90;;;;;;4972494;28;20058;-73
2021/12/29 11:28:24;;;;;;;2.97;0.80;;;9.60;99.90;;;;;;4955847;28;20027;-74
2021/12/29 11:30:51;;;;;;;3.65;1.50;;;9.70;99.90;;;;;;4972382;28;20031;-73
2021/12/29 11:33:17;;;;;;;4.53;1.10;;;9.60;99.90;;;;;;4973093;28;20035;-70
2021/12/29 11:35:47;;;;;;;2.97;0.90;;;9.70;99.90;;;;;;4971862;28;20365;-73
2021/12/29 11:38:14;;;;;;;2.95;0.90;;;9.70;99.90;;;;;;4973340;28;20023;-72
2021/12/29 11:40:45;;;;;;;4.18;1.00;;;9.70;99.90;;;;;;4972321;28;20030;-73
2021/12/29 11:43:12;;;;;;;4.80;1.23;;;9.70;99.90;;;;;;4973363;28;20071;-71
2021/12/29 11:45:39;;;;;;;5.57;1.00;;;9.80;99.90;;;;;;4972416;28;20035;-71
2021/12/29 11:48:05;;;;;;;3.35;1.30;;;9.80;99.90;;;;;;4972968;28;20026;-71
2021/12/29 11:50:34;;;;;;;4.22;1.23;;;9.80;99.90;;;;;;4972321;28;20090;-71
2021/12/29 11:53:09;;;;;;;2.75;0.90;;;9.80;99.90;;;;;;4972528;28;20121;-71
2021/12/29 11:55:48;;;;;;;5.05;1.20;;;9.80;99.90;;;;;;4971924;28;20042;-70
2021/12/29 11:58:36;;;;;;;4.00;0.82;;;9.80;99.90;;;;;;4972553;28;20030;-70
2021/12/29 12:01:23;;;;;;;1.67;0.70;;;9.90;99.90;;;;;;4972747;28;20082;-71
2021/12/29 12:03:53;;;;;;;3.03;0.85;;;9.80;99.90;;;;;;4971537;28;20492;-70
2021/12/29 12:06:19;;;;;;;6.38;1.17;;;9.80;99.90;;;;;;4972617;28;20041;-69
2021/12/29 12:08:45;;;;;;;3.72;0.90;;;9.80;99.90;;;;;;4971847;28;20054;-74
2021/12/29 12:11:25;;;;;;;2.15;0.90;;;9.90;99.90;;;;;;4972481;28;20062;-73
2021/12/29 12:13:51;;;;;;;;;;;9.90;99.90;;;;;;4971935;28;20642;-70
2021/12/29 12:16:17;;;;;;;4.00;1.00;;;10.00;99.90;;;;;;4972759;28;19910;-69
2021/12/29 12:18:57;;;;;;;5.20;1.30;;;10.10;99.90;;;;;;4971661;28;20138;-70
2021/12/29 12:21:28;;;;;;;6.47;1.33;;;10.20;99.90;;;;;;4972509;28;20027;-70
2021/12/29 12:23:57;;;;;;;6.53;1.30;;;10.20;99.90;;;;;;4971696;28;20101;-71
2021/12/29 12:26:25;;;;;;;3.90;1.10;;;10.30;99.90;;;;;;4972427;28;20037;-74
2021/12/29 12:28:53;;;;;;;3.63;1.23;;;10.30;99.90;;;;;;4975479;28;20031;-74
2021/12/29 12:31:28;;;;;;;6.47;1.00;;;10.30;99.90;;;;;;4976030;28;20027;-68
2021/12/29 12:34:06;;;;;;;4.65;1.33;;;10.30;99.90;;;;;;4975214;28;20109;-72
2021/12/29 12:36:33;;;;;;;3.40;1.42;;;10.30;99.90;;;;;;4975156;28;20031;-74
2021/12/29 12:39:09;;;;;;;7.38;1.55;;;10.30;99.90;;;;;;4963767;28;20031;-70
2021/12/29 12:41:44;;;;;;;6.78;1.80;;;10.30;99.90;;;;;;4974882;28;20523;-72
2021/12/29 12:44:10;;;;;;;4.57;1.35;;;10.30;99.90;;;;;;4975296;28;20039;-69
2021/12/29 12:46:42;;;;;;;4.45;1.38;;;10.40;99.90;;;;;;4974934;28;20038;-71
2021/12/29 12:49:31;;;;;;;6.28;1.80;;;10.30;99.90;;;;;;4976056;28;20073;-68
2021/12/29 12:52:08;;;;;;;6.20;1.52;;;10.40;99.90;;;;;;4975140;28;20031;-73
2021/12/29 12:54:38;;;;;;;9.65;2.10;;;10.40;99.90;;;;;;4974604;28;20448;-70
2021/12/29 12:57:05;;;;;;;10.45;2.10;;;10.40;99.90;;;;;;4975491;28;20118;-81
2021/12/29 12:59:45;;;;;;;7.25;1.75;;;10.40;99.90;;;;;;4976013;28;20039;-76
2021/12/29 13:02:13;;;;;;;4.85;1.48;;;10.40;99.90;;;;;;4975182;28;20035;-76
2021/12/29 13:05:00;;;;;;;13.68;2.10;;;10.40;99.90;;;;;;4974517;28;20039;-69
2021/12/29 13:07:25;;;;;;;8.68;1.92;;;10.40;99.90;;;;;;4975311;28;20038;-75